createdAt,value
2019-05-03T00:02:27.450Z,7.90
2019-05-03T00:07:31.783Z,7.80
2019-05-03T00:12:35.496Z,7.90
2019-05-03T00:17:38.955Z,7.90
2019-05-03T00:22:45.325Z,7.90
2019-05-03T00:27:52.436Z,7.90
2019-05-03T00:32:57.527Z,7.90
2019-05-03T00:38:05.303Z,7.90
2019-05-03T00:43:11.600Z,8.10
2019-05-03T00:48:15.311Z,8.10
2019-05-03T00:53:18.684Z,8.30
2019-05-03T00:58:22.527Z,8.50
2019-05-03T01:03:26.058Z,8.70
2019-05-03T01:08:29.958Z,8.80
2019-05-03T01:13:34.100Z,8.80
2019-05-03T01:18:38.738Z,8.70
2019-05-03T01:23:42.817Z,8.80
2019-05-03T01:28:46.600Z,5.20
2019-05-03T01:33:51.562Z,8.60
2019-05-03T01:38:56.294Z,8.60
2019-05-03T01:44:01.820Z,8.50
2019-05-03T01:49:19.100Z,8.60
2019-05-03T01:54:22.916Z,6.90
2019-05-03T01:59:27.483Z,8.40
2019-05-03T02:04:53.396Z,8.40
2019-05-03T02:09:57.447Z,8.50
2019-05-03T02:15:02.478Z,8.60
2019-05-03T02:20:06.931Z,8.70
2019-05-03T02:25:12.542Z,8.90
2019-05-03T02:30:16.174Z,9.10
2019-05-03T02:35:22.632Z,9.20
2019-05-03T02:40:26.356Z,9.40
2019-05-03T02:45:30.675Z,7.90
2019-05-03T02:50:36.063Z,9.50
2019-05-03T02:55:39.950Z,9.60
2019-05-03T03:00:59.784Z,9.70
2019-05-03T03:06:06.706Z,9.80
2019-05-03T03:11:09.858Z,9.80
2019-05-03T03:16:16.300Z,9.90
2019-05-03T03:21:26.073Z,9.80
2019-05-03T03:26:37.210Z,9.90
2019-05-03T03:32:28.376Z,9.90
2019-05-03T03:37:29.713Z,9.90
2019-05-03T03:42:36.025Z,10.00
2019-05-03T03:47:39.716Z,9.90
2019-05-03T03:52:45.366Z,9.90
2019-05-03T03:57:49.220Z,10.00
2019-05-03T04:02:55.279Z,9.90
2019-05-03T04:07:59.604Z,10.00
2019-05-03T04:13:05.785Z,9.80
2019-05-03T04:18:32.893Z,8.40
2019-05-03T04:23:37.045Z,9.80
2019-05-03T04:28:41.623Z,9.90
2019-05-03T04:33:45.229Z,9.80
2019-05-03T04:38:49.178Z,7.50
2019-05-03T04:43:55.246Z,8.30
2019-05-03T04:48:58.653Z,9.70
2019-05-03T04:54:20.390Z,9.70
2019-05-03T04:59:25.454Z,6.30
2019-05-03T05:04:31.396Z,9.50
2019-05-03T05:09:37.025Z,9.50
2019-05-03T05:14:41.895Z,9.60
2019-05-03T05:20:10.732Z,9.60
2019-05-03T05:25:17.404Z,8.10
2019-05-03T05:30:21.856Z,9.40
2019-05-03T05:35:25.907Z,9.40
2019-05-03T05:40:30.456Z,8.90
2019-05-03T05:45:35.031Z,8.90
2019-05-03T05:50:41.254Z,8.80
2019-05-03T05:56:06.893Z,8.90
2019-05-03T06:01:21.471Z,5.70
2019-05-03T06:06:32.521Z,8.80
2019-05-03T06:16:56.453Z,8.90
2019-05-03T06:22:11.012Z,8.90
2019-05-03T06:32:34.673Z,9.30
2019-05-03T06:37:43.332Z,9.40
2019-05-03T06:42:54.456Z,9.60
2019-05-03T06:58:05.092Z,9.40
2019-05-03T07:03:30.723Z,9.20
2019-05-03T07:14:00.023Z,9.00
2019-05-03T07:24:08.170Z,8.80
2019-05-03T07:29:12.502Z,8.90
2019-05-03T07:34:15.984Z,9.10
2019-05-03T07:39:20.256Z,9.30
2019-05-03T07:44:25.458Z,9.50
2019-05-03T07:54:35.494Z,9.40
2019-05-03T07:59:39.439Z,9.40
2019-05-03T08:14:54.991Z,9.60
2019-05-03T08:25:05.328Z,9.90
2019-05-03T08:40:47.216Z,9.40
2019-05-03T08:56:01.437Z,10.30
2019-05-03T09:06:09.597Z,10.70
2019-05-03T09:11:15.545Z,10.70
2019-05-03T09:21:25.500Z,11.30
2019-05-03T09:56:59.558Z,11.70
2019-05-03T10:02:04.951Z,12.50
2019-05-03T10:07:09.247Z,12.60
2019-05-03T10:17:50.908Z,13.20
2019-05-03T10:28:03.142Z,14.00
2019-05-03T10:33:15.546Z,14.00
2019-05-03T10:48:30.218Z,13.40
2019-05-03T11:13:58.033Z,12.30
2019-05-03T11:19:01.962Z,12.80
2019-05-03T11:29:10.015Z,12.40
2019-05-03T11:34:15.646Z,12.80
2019-05-03T11:44:39.721Z,12.90
2019-05-03T11:49:45.196Z,13.00
2019-05-03T12:15:10.639Z,14.80
2019-05-03T12:40:35.217Z,14.60
2019-05-03T12:45:39.885Z,14.80
2019-05-03T12:55:49.643Z,13.80
2019-05-03T13:01:05.537Z,14.50
2019-05-03T13:06:09.181Z,14.50
2019-05-03T13:11:12.590Z,14.00
2019-05-03T13:21:23.324Z,14.20
2019-05-03T13:26:29.383Z,13.90
2019-05-03T13:31:34.548Z,14.50
2019-05-03T13:51:50.593Z,14.80
2019-05-03T13:56:55.753Z,14.50
2019-05-03T14:02:11.513Z,14.30
2019-05-03T14:12:09.827Z,14.20
2019-05-03T14:22:19.392Z,15.00
2019-05-03T14:27:25.425Z,15.40
2019-05-03T14:32:29.724Z,15.20
2019-05-03T14:42:38.435Z,22.70
2019-05-03T14:47:42.219Z,28.40
2019-05-03T14:58:07.686Z,27.40
2019-05-03T15:03:15.084Z,22.60
2019-05-03T15:13:25.113Z,30.00
2019-05-03T15:23:34.671Z,28.70
2019-05-03T15:28:38.917Z,34.20
2019-05-03T16:04:20.742Z,23.20
2019-05-03T16:14:28.562Z,21.20
2019-05-03T16:19:32.012Z,20.00
2019-05-03T16:24:35.987Z,16.50
2019-05-03T16:34:44.591Z,14.80
2019-05-03T16:49:56.678Z,20.50
2019-05-03T16:55:00.473Z,19.00
2019-05-03T17:00:05.682Z,16.90
2019-05-03T17:05:25.931Z,16.30
2019-05-03T17:10:36.577Z,14.80
2019-05-03T17:15:40.738Z,13.50
2019-05-03T17:25:49.207Z,12.30
2019-05-03T17:30:55.189Z,12.00
2019-05-03T17:41:21.584Z,11.40
2019-05-03T18:02:23.241Z,10.60
2019-05-03T18:13:08.281Z,10.40
2019-05-03T18:28:20.672Z,9.90
2019-05-03T18:33:24.703Z,9.80
2019-05-03T19:04:07.226Z,9.80
2019-05-03T19:19:39.050Z,9.80
2019-05-03T19:24:44.487Z,9.90
2019-05-03T19:55:08.635Z,9.90
2019-05-03T20:00:12.657Z,10.00
2019-05-03T20:05:41.672Z,10.00
2019-05-03T20:20:55.192Z,9.80
2019-05-03T20:25:59.053Z,9.80
2019-05-03T20:56:34.268Z,9.10
2019-05-03T21:17:00.802Z,8.50
2019-05-03T21:22:11.393Z,8.40
2019-05-03T21:27:15.531Z,8.40
2019-05-03T21:32:19.169Z,8.40
2019-05-03T22:08:00.299Z,8.40
2019-05-03T22:33:55.157Z,8.30
2019-05-03T22:38:59.490Z,8.20
2019-05-03T22:44:02.829Z,8.20
2019-05-03T22:54:15.337Z,8.20
2019-05-03T22:59:19.102Z,8.10
2019-05-03T23:04:25.274Z,8.10
2019-05-03T23:09:29.102Z,8.00
2019-05-03T23:14:34.585Z,7.90
2019-05-03T23:19:40.861Z,7.80
2019-05-03T23:24:44.444Z,7.70
2019-05-03T23:29:48.015Z,7.50
2019-05-03T23:34:51.400Z,7.30
2019-05-03T23:39:55.223Z,7.20
2019-05-03T23:50:08.205Z,7.00
2019-05-03T23:55:39.350Z,6.90
